Time;durP1;ratioP1;P1;durP2;ratioP2;P2;SDS_P1;SDS_P2;PMS_P1;PMS_P2;Temp;Humidity;BMP_temperature;BMP_pressure;BME280_temperature;BME280_humidity;BME280_pressure;Samples;Min_cycle;Max_cycle;Signal;HPM_P1;HPM_P2
2021/05/25 00:02:02;;;;;;;3.70;1.02;;;14.60;99.90;;;;;;4894633;29;20115;-63
2021/05/25 00:04:30;;;;;;;2.33;0.73;;;14.60;99.90;;;;;;4893251;29;20049;-63
2021/05/25 00:06:57;;;;;;;1.55;0.70;;;14.60;99.90;;;;;;4906755;29;20055;-62
2021/05/25 00:09:24;;;;;;;2.88;0.88;;;14.60;99.90;;;;;;4902173;29;20431;-63
2021/05/25 00:11:51;;;;;;;3.53;0.60;;;14.60;99.90;;;;;;4895953;29;20053;-63
2021/05/25 00:14:20;;;;;;;0.90;0.60;;;14.70;99.90;;;;;;4896335;29;20041;-63
2021/05/25 00:16:48;;;;;;;2.08;0.50;;;14.70;99.90;;;;;;4892141;29;20045;-63
2021/05/25 00:19:16;;;;;;;1.60;0.80;;;14.70;99.90;;;;;;4895795;29;20096;-63
2021/05/25 00:21:43;;;;;;;2.50;0.60;;;14.80;99.90;;;;;;4895958;29;20052;-62
2021/05/25 00:24:10;;;;;;;1.42;0.55;;;14.80;99.90;;;;;;4896326;29;20036;-62
2021/05/25 00:26:37;;;;;;;1.67;0.70;;;14.80;99.90;;;;;;4897031;29;20037;-63
2021/05/25 00:29:05;;;;;;;1.17;0.68;;;14.80;99.90;;;;;;4893419;29;20112;-63
2021/05/25 00:31:32;;;;;;;1.10;0.52;;;14.80;99.90;;;;;;4893831;29;20054;-63
2021/05/25 00:33:59;;;;;;;1.25;0.63;;;14.70;99.90;;;;;;4893591;29;20044;-63
2021/05/25 00:36:28;;;;;;;7.60;0.82;;;14.80;99.90;;;;;;4890448;29;20122;-62
2021/05/25 00:38:55;;;;;;;0.70;0.40;;;14.80;99.90;;;;;;4893434;29;20057;-62
2021/05/25 00:41:22;;;;;;;1.35;0.50;;;14.70;99.90;;;;;;4892810;29;20056;-62
2021/05/25 00:43:49;;;;;;;2.70;0.60;;;14.70;99.90;;;;;;4893929;29;20159;-63
2021/05/25 00:46:16;;;;;;;1.40;0.50;;;14.60;99.90;;;;;;4893210;29;22055;-63
2021/05/25 00:48:43;;;;;;;2.00;0.70;;;14.60;99.90;;;;;;4894585;29;20104;-63
2021/05/25 00:51:11;;;;;;;1.58;0.68;;;14.60;99.90;;;;;;4893916;29;20076;-63
2021/05/25 00:53:38;;;;;;;5.05;0.80;;;14.60;99.90;;;;;;4892786;29;20056;-63
2021/05/25 00:56:06;;;;;;;1.40;0.57;;;14.50;99.90;;;;;;4894724;29;20461;-63
2021/05/25 00:58:34;;;;;;;2.55;1.10;;;14.50;99.90;;;;;;4899902;29;20503;-63
2021/05/25 01:01:03;;;;;;;2.03;0.63;;;14.60;99.90;;;;;;4907177;29;20059;-63
2021/05/25 01:03:31;;;;;;;3.17;0.70;;;14.60;99.90;;;;;;4879524;29;20060;-63
2021/05/25 01:05:59;;;;;;;1.35;0.70;;;14.50;99.90;;;;;;4894651;29;20131;-62
2021/05/25 01:08:26;;;;;;;2.53;0.57;;;14.50;99.90;;;;;;4897689;29;20103;-63
2021/05/25 01:11:07;;;;;;;1.20;0.52;;;14.50;99.90;;;;;;4898174;29;20048;-63
2021/05/25 01:13:42;;;;;;;2.33;0.80;;;14.50;99.90;;;;;;4897115;29;20040;-63
2021/05/25 01:16:09;;;;;;;1.05;0.60;;;14.50;99.90;;;;;;4896402;29;20057;-62
2021/05/25 01:18:37;;;;;;;2.45;0.70;;;14.50;99.90;;;;;;4902548;29;20044;-62
2021/05/25 01:21:07;;;;;;;2.63;0.82;;;14.50;99.90;;;;;;4895928;29;20044;-63
2021/05/25 01:23:35;;;;;;;1.58;0.75;;;14.60;99.90;;;;;;4895854;29;20045;-63
2021/05/25 01:26:04;;;;;;;2.35;1.02;;;14.60;99.90;;;;;;4896220;29;20060;-63
2021/05/25 01:28:31;;;;;;;2.03;1.00;;;14.70;99.90;;;;;;4897620;29;20563;-63
2021/05/25 01:30:59;;;;;;;1.80;1.00;;;14.70;99.90;;;;;;4897083;29;20096;-63
2021/05/25 01:33:30;;;;;;;2.35;0.80;;;14.70;99.90;;;;;;4891133;29;20056;-63
2021/05/25 01:35:58;;;;;;;3.22;0.90;;;14.60;99.90;;;;;;4899676;29;20032;-62
2021/05/25 01:38:25;;;;;;;1.60;0.90;;;14.60;99.90;;;;;;4896395;29;20048;-62
2021/05/25 01:40:55;;;;;;;2.35;1.25;;;14.60;99.90;;;;;;4896960;29;20056;-63
2021/05/25 01:43:23;;;;;;;2.55;1.00;;;14.60;99.90;;;;;;4896293;29;20504;-63
2021/05/25 01:45:51;;;;;;;2.80;1.17;;;14.60;99.90;;;;;;4895687;29;20104;-63
2021/05/25 01:48:18;;;;;;;3.33;0.98;;;14.50;99.90;;;;;;4890534;29;20048;-63
2021/05/25 01:50:46;;;;;;;4.22;1.38;;;14.50;99.90;;;;;;4897880;29;20060;-63
2021/05/25 01:53:24;;;;;;;1.77;1.08;;;14.50;99.90;;;;;;4906580;29;20388;-63
2021/05/25 01:55:53;;;;;;;2.67;1.17;;;14.50;99.90;;;;;;4893582;29;20484;-63
2021/05/25 01:58:32;;;;;;;1.88;0.95;;;14.50;99.90;;;;;;4894897;29;20053;-63
2021/05/25 02:01:06;;;;;;;2.58;1.25;;;14.50;99.90;;;;;;4894796;29;20504;-63
2021/05/25 02:03:35;;;;;;;2.33;1.00;;;14.50;99.90;;;;;;4893245;29;20055;-63
2021/05/25 02:06:06;;;;;;;2.13;1.15;;;14.50;99.90;;;;;;4896730;29;20051;-63
2021/05/25 02:08:33;;;;;;;3.58;1.20;;;14.50;99.90;;;;;;4895786;29;20047;-63
2021/05/25 02:11:03;;;;;;;3.28;1.20;;;14.50;99.90;;;;;;4898049;29;20530;-63
2021/05/25 02:13:35;;;;;;;2.75;1.50;;;14.60;99.90;;;;;;4896062;29;20079;-63
2021/05/25 02:16:09;;;;;;;3.53;1.40;;;14.60;99.90;;;;;;4897472;29;20049;-63
2021/05/25 02:18:43;;;;;;;2.53;1.23;;;14.60;99.90;;;;;;4895783;29;20040;-63
2021/05/25 02:21:12;;;;;;;4.07;1.65;;;14.60;99.90;;;;;;4898037;29;20040;-63
2021/05/25 02:23:40;;;;;;;2.97;1.13;;;14.50;99.90;;;;;;4894738;29;20048;-62
2021/05/25 02:26:08;;;;;;;3.50;1.55;;;14.50;99.90;;;;;;4892091;29;20044;-63
2021/05/25 02:28:35;;;;;;;2.58;1.50;;;14.50;99.90;;;;;;4895425;29;20048;-63
2021/05/25 02:31:03;;;;;;;2.80;1.45;;;14.40;99.90;;;;;;4879369;29;20052;-63
2021/05/25 02:33:30;;;;;;;3.65;1.67;;;14.50;99.90;;;;;;4895041;29;20076;-63
2021/05/25 02:35:59;;;;;;;4.95;1.17;;;14.40;99.90;;;;;;4896393;29;20127;-63
2021/05/25 02:38:28;;;;;;;3.03;1.40;;;14.40;99.90;;;;;;4894454;29;20056;-63
2021/05/25 02:40:55;;;;;;;2.88;1.58;;;14.40;99.90;;;;;;4894902;29;20404;-63
2021/05/25 02:43:25;;;;;;;3.17;1.58;;;14.50;99.90;;;;;;4910768;29;20558;-63
2021/05/25 02:45:53;;;;;;;3.60;2.28;;;14.40;99.90;;;;;;4896068;29;20131;-63
2021/05/25 02:48:21;;;;;;;2.70;1.50;;;14.50;99.90;;;;;;4894133;29;20633;-63
2021/05/25 02:50:49;;;;;;;4.07;1.90;;;14.40;99.90;;;;;;4878859;29;20040;-63
2021/05/25 02:53:17;;;;;;;2.92;1.50;;;14.40;99.90;;;;;;4894731;29;20507;-63
2021/05/25 02:55:44;;;;;;;4.05;1.88;;;14.40;99.90;;;;;;4894264;29;20441;-63
2021/05/25 02:58:11;;;;;;;2.13;1.42;;;14.40;99.90;;;;;;4894331;29;20509;-63
2021/05/25 03:00:44;;;;;;;4.28;2.47;;;14.30;99.90;;;;;;4909823;29;20049;-63
2021/05/25 03:03:12;;;;;;;3.42;1.98;;;14.30;99.90;;;;;;4895412;29;20040;-63
2021/05/25 03:05:40;;;;;;;2.42;1.80;;;14.30;99.90;;;;;;4895208;29;20041;-63
2021/05/25 03:08:10;;;;;;;3.75;1.70;;;14.30;99.90;;;;;;4908110;29;20049;-63
2021/05/25 03:10:39;;;;;;;6.03;1.33;;;14.30;99.90;;;;;;4901700;29;20040;-63
2021/05/25 03:13:06;;;;;;;5.03;1.67;;;14.30;99.90;;;;;;4895695;29;20416;-63
2021/05/25 03:15:37;;;;;;;2.45;1.73;;;14.30;99.90;;;;;;4895100;29;20033;-63
2021/05/25 03:18:05;;;;;;;2.95;1.67;;;14.30;99.90;;;;;;4892439;29;20038;-63
2021/05/25 03:20:33;;;;;;;3.65;2.17;;;14.20;99.90;;;;;;4895107;29;20043;-62
2021/05/25 03:23:02;;;;;;;4.32;2.05;;;14.20;99.90;;;;;;4895646;29;20051;-62
2021/05/25 03:25:30;;;;;;;5.43;2.58;;;14.20;99.90;;;;;;4894704;29;20041;-62
2021/05/25 03:27:57;;;;;;;4.03;2.13;;;14.20;99.90;;;;;;4891913;29;20108;-63
2021/05/25 03:30:26;;;;;;;3.25;1.80;;;14.20;99.90;;;;;;4893212;29;20048;-63
2021/05/25 03:32:54;;;;;;;3.40;1.70;;;14.10;99.90;;;;;;4889801;29;20048;-63
2021/05/25 03:35:23;;;;;;;3.70;1.73;;;14.10;99.90;;;;;;4895399;29;20048;-63
2021/05/25 03:37:51;;;;;;;3.33;1.60;;;14.20;99.90;;;;;;4878265;29;20060;-63
2021/05/25 03:40:19;;;;;;;4.20;1.60;;;14.30;99.90;;;;;;4894725;29;20048;-63
2021/05/25 03:42:48;;;;;;;3.60;1.65;;;14.30;99.90;;;;;;4893645;29;20048;-63
2021/05/25 03:45:16;;;;;;;4.07;2.00;;;14.30;99.90;;;;;;4894328;29;20049;-63
2021/05/25 03:47:43;;;;;;;4.18;2.17;;;14.30;99.90;;;;;;4894572;29;20041;-63
2021/05/25 03:50:12;;;;;;;2.85;1.80;;;14.30;99.90;;;;;;4899372;29;20080;-63
2021/05/25 03:52:51;;;;;;;4.18;1.92;;;14.30;99.90;;;;;;4896558;29;20059;-63
2021/05/25 03:55:44;;;;;;;4.32;2.28;;;14.20;99.90;;;;;;4895067;29;20051;-63
2021/05/25 04:00:58;;;;;;;5.53;1.90;;;14.30;99.90;;;;;;4894495;29;20586;-63
2021/05/25 04:03:26;;;;;;;3.78;2.15;;;14.30;99.90;;;;;;4895087;29;20368;-63
2021/05/25 04:05:53;;;;;;;3.97;1.92;;;14.30;99.90;;;;;;4895264;29;20048;-63
2021/05/25 04:08:20;;;;;;;3.67;1.67;;;14.30;99.90;;;;;;4891134;29;20036;-63
2021/05/25 04:10:47;;;;;;;3.22;1.70;;;14.30;99.90;;;;;;4892881;29;20039;-63
2021/05/25 04:13:15;;;;;;;2.70;1.80;;;14.30;99.90;;;;;;4893390;29;20096;-63
2021/05/25 04:15:47;;;;;;;5.35;2.20;;;14.20;99.90;;;;;;4892955;29;20752;-63
2021/05/25 04:18:14;;;;;;;4.50;2.58;;;14.30;99.90;;;;;;4892966;29;20033;-63
2021/05/25 04:20:42;;;;;;;4.20;2.13;;;14.30;99.90;;;;;;4895325;29;20496;-63
2021/05/25 04:23:09;;;;;;;4.25;2.47;;;14.40;99.90;;;;;;4894493;29;20068;-63
2021/05/25 04:25:36;;;;;;;2.90;2.13;;;14.30;99.90;;;;;;4890533;29;20040;-63
2021/05/25 04:28:03;;;;;;;3.90;1.88;;;14.30;99.90;;;;;;4888936;29;20400;-62
2021/05/25 04:30:31;;;;;;;5.00;2.17;;;14.30;99.90;;;;;;4893668;29;20053;-63
2021/05/25 04:32:58;;;;;;;3.42;2.08;;;14.30;99.90;;;;;;4899051;29;20385;-63
2021/05/25 04:35:25;;;;;;;3.85;2.10;;;14.30;99.90;;;;;;4899142;29;20400;-63
2021/05/25 04:37:54;;;;;;;3.63;1.95;;;14.40;99.90;;;;;;4900202;29;20048;-63
2021/05/25 04:40:22;;;;;;;4.05;2.00;;;14.40;99.90;;;;;;4898576;29;20048;-62
2021/05/25 04:42:49;;;;;;;4.55;2.13;;;14.50;99.90;;;;;;4899646;29;20047;-63
2021/05/25 04:45:16;;;;;;;4.05;2.45;;;14.50;99.90;;;;;;4896470;29;20040;-63
2021/05/25 04:47:44;;;;;;;3.65;2.15;;;14.50;99.90;;;;;;4897051;29;20547;-63
2021/05/25 04:50:12;;;;;;;4.95;2.15;;;14.50;99.90;;;;;;4898213;29;20519;-63
2021/05/25 04:52:39;;;;;;;6.05;2.80;;;14.60;99.90;;;;;;4896993;29;20040;-63
2021/05/25 04:55:09;;;;;;;4.70;2.95;;;14.60;99.90;;;;;;4895699;29;20044;-63
2021/05/25 04:57:37;;;;;;;4.45;2.58;;;14.70;99.90;;;;;;4896644;29;20048;-63
2021/05/25 05:00:10;;;;;;;3.90;2.53;;;14.80;99.90;;;;;;4879217;29;20128;-63
2021/05/25 05:02:37;;;;;;;4.93;3.10;;;14.80;99.90;;;;;;4897644;29;20051;-63
2021/05/25 05:05:07;;;;;;;5.38;2.80;;;14.90;99.90;;;;;;4896332;29;20068;-63
2021/05/25 05:07:34;;;;;;;4.15;2.75;;;14.90;99.90;;;;;;4897273;29;20051;-62
2021/05/25 05:10:02;;;;;;;4.85;2.55;;;15.00;99.90;;;;;;4895487;29;20052;-63
2021/05/25 05:12:29;;;;;;;5.85;2.60;;;15.00;99.90;;;;;;4898495;29;20041;-63
2021/05/25 05:14:57;;;;;;;6.95;2.72;;;15.00;99.90;;;;;;4902406;29;20044;-62
2021/05/25 05:17:25;;;;;;;4.32;2.63;;;15.10;99.90;;;;;;4907337;29;20048;-62
2021/05/25 05:19:52;;;;;;;4.70;3.20;;;15.10;99.90;;;;;;4897904;29;20068;-62
2021/05/25 05:22:19;;;;;;;4.75;2.83;;;15.10;99.90;;;;;;4894606;29;20052;-63
2021/05/25 05:24:47;;;;;;;4.35;3.00;;;15.20;99.90;;;;;;4907552;29;20070;-63
2021/05/25 05:27:14;;;;;;;6.43;2.70;;;15.20;99.90;;;;;;4896834;29;20052;-63
2021/05/25 05:29:41;;;;;;;5.13;2.80;;;15.20;99.90;;;;;;4896630;29;20048;-63
2021/05/25 05:32:08;;;;;;;5.22;2.22;;;15.20;99.90;;;;;;4899464;29;20070;-63
2021/05/25 05:34:35;;;;;;;4.68;2.60;;;15.20;99.90;;;;;;4878715;29;20045;-63
2021/05/25 05:37:03;;;;;;;4.10;2.40;;;15.30;99.90;;;;;;4898077;29;20100;-63
2021/05/25 05:39:30;;;;;;;3.92;2.20;;;15.30;99.90;;;;;;4898297;29;20053;-63
2021/05/25 05:41:57;;;;;;;3.83;2.08;;;15.30;99.90;;;;;;4894565;29;20075;-62
2021/05/25 05:44:24;;;;;;;6.75;2.45;;;15.40;99.90;;;;;;4896806;29;20389;-62
2021/05/25 05:46:52;;;;;;;5.15;2.42;;;15.40;99.90;;;;;;4896014;29;20060;-63
2021/05/25 05:49:22;;;;;;;4.15;2.17;;;15.40;99.90;;;;;;4897549;29;20040;-63
2021/05/25 05:51:50;;;;;;;4.55;2.03;;;15.50;99.90;;;;;;4891974;29;20044;-63
2021/05/25 05:54:17;;;;;;;5.10;2.22;;;15.50;99.90;;;;;;4894318;29;20060;-63
2021/05/25 05:56:47;;;;;;;3.15;1.67;;;15.50;99.90;;;;;;4897052;29;20060;-63
2021/05/25 05:59:16;;;;;;;4.43;1.75;;;15.50;99.90;;;;;;4892651;29;20052;-63
2021/05/25 06:01:44;;;;;;;4.43;2.25;;;15.50;99.90;;;;;;4896391;29;20039;-63
2021/05/25 06:04:11;;;;;;;3.15;1.98;;;15.60;99.90;;;;;;4903011;29;20107;-63
2021/05/25 06:06:38;;;;;;;4.53;2.63;;;15.60;99.90;;;;;;4908866;29;20047;-63
2021/05/25 06:09:05;;;;;;;3.40;1.90;;;15.60;99.90;;;;;;4896245;29;20059;-63
2021/05/25 06:11:32;;;;;;;4.10;1.77;;;15.60;99.90;;;;;;4905604;29;20097;-63
2021/05/25 06:13:59;;;;;;;3.78;1.90;;;15.60;99.90;;;;;;4905721;29;20392;-63
2021/05/25 06:16:27;;;;;;;4.88;1.98;;;15.70;99.90;;;;;;4902737;29;20795;-63
2021/05/25 06:18:54;;;;;;;2.55;1.77;;;15.70;99.90;;;;;;4898494;29;20100;-63
2021/05/25 06:21:21;;;;;;;3.20;2.03;;;15.70;99.90;;;;;;4893619;29;20124;-63
2021/05/25 06:23:48;;;;;;;5.55;2.67;;;15.70;99.90;;;;;;4890649;29;20072;-62
2021/05/25 06:26:15;;;;;;;5.10;2.65;;;15.80;99.90;;;;;;4882401;29;20053;-63
2021/05/25 06:28:42;;;;;;;5.72;2.58;;;15.80;99.90;;;;;;4896555;29;20045;-63
2021/05/25 06:31:09;;;;;;;4.13;2.42;;;15.90;99.90;;;;;;4896314;29;20041;-63
2021/05/25 06:33:39;;;;;;;4.32;2.10;;;15.90;99.90;;;;;;4880631;29;20048;-63
2021/05/25 06:36:06;;;;;;;4.95;2.20;;;16.00;99.90;;;;;;4895083;29;20527;-63
2021/05/25 06:38:33;;;;;;;5.20;2.97;;;16.00;99.90;;;;;;4895599;29;20052;-63
2021/05/25 06:41:00;;;;;;;3.92;2.20;;;16.10;99.90;;;;;;4896660;29;20107;-63
2021/05/25 06:43:27;;;;;;;3.67;1.95;;;16.10;99.90;;;;;;4897513;29;20048;-63
2021/05/25 06:45:54;;;;;;;3.83;1.70;;;16.10;99.90;;;;;;4895490;29;20468;-63
2021/05/25 06:48:21;;;;;;;3.92;2.17;;;16.20;99.90;;;;;;4904215;29;20149;-63
2021/05/25 06:50:48;;;;;;;5.00;2.60;;;16.20;99.90;;;;;;4891410;29;20056;-63
2021/05/25 06:53:17;;;;;;;3.53;2.70;;;16.20;99.90;;;;;;4895298;29;20056;-63
2021/05/25 06:55:44;;;;;;;6.70;2.03;;;16.20;99.90;;;;;;4893804;29;20185;-63
2021/05/25 06:58:11;;;;;;;4.70;2.20;;;16.30;99.90;;;;;;4895150;29;20060;-63
2021/05/25 07:00:38;;;;;;;3.78;2.22;;;16.30;99.90;;;;;;4893222;29;20048;-63
2021/05/25 07:03:05;;;;;;;3.58;1.80;;;16.30;99.90;;;;;;4894900;29;20132;-63
2021/05/25 07:05:32;;;;;;;4.97;2.20;;;16.30;99.90;;;;;;4894559;29;20044;-63
2021/05/25 07:07:59;;;;;;;4.22;2.30;;;16.40;99.90;;;;;;4868139;29;20380;-63
2021/05/25 07:10:26;;;;;;;3.60;1.98;;;16.40;99.90;;;;;;4907990;29;20129;-63
2021/05/25 07:12:53;;;;;;;6.20;2.53;;;16.50;99.90;;;;;;4893662;29;20056;-63
2021/05/25 07:15:20;;;;;;;7.03;2.30;;;16.50;99.90;;;;;;4894229;29;20047;-63
2021/05/25 07:17:55;;;;;;;3.97;2.20;;;16.60;99.90;;;;;;4894204;29;20059;-63
2021/05/25 07:20:23;;;;;;;5.32;2.15;;;16.60;99.90;;;;;;4892934;29;20115;-63
2021/05/25 07:22:53;;;;;;;3.13;2.03;;;16.60;99.90;;;;;;4895093;29;20136;-63
2021/05/25 07:25:25;;;;;;;3.90;1.45;;;16.70;99.90;;;;;;4896695;29;20385;-63
2021/05/25 07:27:53;;;;;;;3.10;1.65;;;16.70;99.90;;;;;;4901666;29;20055;-63
2021/05/25 07:30:21;;;;;;;1.98;1.42;;;16.80;99.90;;;;;;4894588;29;20055;-62
2021/05/25 07:32:48;;;;;;;5.05;2.67;;;16.80;99.90;;;;;;4901566;29;20699;-62
2021/05/25 07:35:16;;;;;;;2.70;1.48;;;16.80;99.90;;;;;;4896050;29;20049;-62
2021/05/25 07:37:43;;;;;;;2.67;1.55;;;16.90;99.90;;;;;;4894763;29;20052;-63
2021/05/25 07:40:11;;;;;;;3.25;1.88;;;16.90;99.90;;;;;;4895330;29;20563;-62
2021/05/25 07:42:38;;;;;;;4.63;2.15;;;16.90;99.90;;;;;;4895058;29;20036;-62
2021/05/25 07:45:06;;;;;;;4.43;1.83;;;17.00;99.90;;;;;;4894884;29;20044;-63
2021/05/25 07:47:33;;;;;;;5.22;2.00;;;17.10;99.90;;;;;;4880137;29;20075;-63
2021/05/25 07:50:12;;;;;;;2.63;1.75;;;17.10;99.90;;;;;;4899244;29;20108;-62
2021/05/25 07:52:45;;;;;;;4.60;1.92;;;17.20;99.90;;;;;;4890069;29;20547;-62
2021/05/25 07:55:16;;;;;;;2.92;1.48;;;17.20;99.90;;;;;;4899510;29;20063;-63
2021/05/25 07:57:43;;;;;;;3.60;1.60;;;17.30;99.90;;;;;;4890628;29;20044;-62
2021/05/25 08:00:12;;;;;;;3.90;1.95;;;17.30;99.90;;;;;;4899771;29;20068;-62
2021/05/25 08:02:42;;;;;;;3.80;1.60;;;17.40;99.90;;;;;;4895455;29;20470;-62
2021/05/25 08:05:11;;;;;;;4.00;1.85;;;17.50;99.90;;;;;;4892756;29;20140;-63
2021/05/25 08:07:38;;;;;;;4.10;1.55;;;17.50;99.90;;;;;;4893836;29;20052;-62
2021/05/25 08:10:09;;;;;;;3.10;1.30;;;17.50;99.90;;;;;;4907464;29;20771;-62
2021/05/25 08:12:37;;;;;;;2.97;1.52;;;17.50;99.90;;;;;;4892672;29;20520;-62
2021/05/25 08:15:06;;;;;;;5.57;1.80;;;17.50;99.90;;;;;;4895271;29;20063;-62
2021/05/25 08:20:18;;;;;;;4.53;1.67;;;17.50;99.90;;;;;;4890320;29;20048;-62
2021/05/25 08:23:10;;;;;;;4.43;2.00;;;17.50;99.90;;;;;;4899732;29;20107;-63
2021/05/25 08:25:38;;;;;;;6.22;1.85;;;17.50;99.90;;;;;;4899542;29;20054;-62
2021/05/25 08:28:06;;;;;;;3.78;1.63;;;17.60;99.90;;;;;;4895614;29;20052;-63
2021/05/25 08:30:39;;;;;;;3.15;2.10;;;17.60;99.90;;;;;;4882853;29;20049;-63
2021/05/25 08:33:11;;;;;;;3.88;2.00;;;17.60;99.90;;;;;;4896366;29;20503;-62
2021/05/25 08:35:41;;;;;;;3.70;1.90;;;17.50;99.90;;;;;;4897623;29;20057;-63
2021/05/25 08:38:12;;;;;;;2.97;2.13;;;17.50;99.90;;;;;;4894535;29;20053;-62
2021/05/25 08:40:39;;;;;;;2.88;1.85;;;17.50;99.90;;;;;;4899426;29;20044;-62
2021/05/25 08:43:07;;;;;;;4.43;2.20;;;17.40;99.90;;;;;;4900591;29;20504;-62
2021/05/25 08:45:34;;;;;;;3.88;2.10;;;17.40;99.90;;;;;;4892458;29;20522;-62
2021/05/25 08:48:02;;;;;;;4.65;1.80;;;17.40;99.90;;;;;;4899389;29;20404;-62
2021/05/25 08:50:50;;;;;;;3.22;1.92;;;17.40;99.90;;;;;;4895123;29;20044;-62
2021/05/25 08:53:17;;;;;;;5.40;2.40;;;17.40;99.90;;;;;;4896389;29;20044;-61
2021/05/25 08:55:48;;;;;;;5.00;2.13;;;17.50;99.90;;;;;;4899323;29;20048;-62
2021/05/25 08:58:16;;;;;;;3.22;1.83;;;17.50;99.90;;;;;;4901535;29;20032;-62
2021/05/25 09:00:43;;;;;;;3.97;2.28;;;17.50;99.90;;;;;;4901033;29;20036;-62
2021/05/25 09:03:10;;;;;;;4.30;1.85;;;17.50;99.90;;;;;;4895123;29;20041;-62
2021/05/25 09:05:40;;;;;;;3.80;1.83;;;17.40;99.90;;;;;;4900587;29;20141;-62
2021/05/25 09:08:07;;;;;;;4.55;2.08;;;17.40;99.90;;;;;;4901440;29;20051;-62
2021/05/25 09:10:42;;;;;;;5.10;2.60;;;17.30;99.90;;;;;;4900351;29;20134;-62
2021/05/25 09:13:23;;;;;;;5.85;2.80;;;17.30;99.90;;;;;;4896915;29;20041;-62
2021/05/25 09:15:58;;;;;;;3.70;2.70;;;17.20;99.90;;;;;;4894072;29;20669;-62
2021/05/25 09:18:28;;;;;;;3.60;2.75;;;17.20;99.90;;;;;;4895807;29;20640;-62
2021/05/25 09:21:05;;;;;;;4.55;2.53;;;17.20;99.90;;;;;;4899071;29;20048;-62
2021/05/25 09:23:33;;;;;;;3.60;1.83;;;17.10;99.90;;;;;;4900728;29;20086;-62
2021/05/25 09:26:25;;;;;;;3.83;1.83;;;17.10;99.90;;;;;;4908069;29;20049;-62
2021/05/25 09:29:06;;;;;;;3.15;1.73;;;17.00;99.90;;;;;;4878500;29;20067;-62
2021/05/25 09:31:44;;;;;;;6.05;1.58;;;17.10;99.90;;;;;;4894558;29;20068;-62
2021/05/25 09:34:12;;;;;;;4.60;1.50;;;17.10;99.90;;;;;;4898241;29;20067;-62
2021/05/25 09:36:57;;;;;;;1.83;1.25;;;17.10;99.90;;;;;;4903767;29;20044;-62
2021/05/25 09:39:25;;;;;;;2.45;0.75;;;17.10;99.90;;;;;;4900875;29;20095;-62
2021/05/25 09:41:57;;;;;;;6.32;1.02;;;17.10;99.90;;;;;;4900152;29;20041;-62
2021/05/25 09:44:25;;;;;;;1.40;0.75;;;17.20;99.90;;;;;;4902321;29;20700;-62
2021/05/25 09:46:52;;;;;;;1.08;0.57;;;17.20;99.90;;;;;;4903053;29;20051;-62
2021/05/25 09:49:20;;;;;;;1.83;0.65;;;17.20;99.90;;;;;;4895302;29;20052;-62
2021/05/25 09:51:47;;;;;;;2.00;0.85;;;17.30;99.90;;;;;;4901452;29;20511;-62
2021/05/25 09:54:19;;;;;;;1.92;0.90;;;17.30;99.90;;;;;;4904084;29;20048;-62
2021/05/25 09:56:57;;;;;;;2.28;0.75;;;17.40;99.90;;;;;;4907611;29;20041;-63
2021/05/25 09:59:36;;;;;;;1.27;0.52;;;17.40;99.90;;;;;;4907863;29;20045;-63
2021/05/25 10:02:20;;;;;;;3.33;0.63;;;17.30;99.90;;;;;;4887524;29;20119;-62
2021/05/25 10:05:17;;;;;;;1.27;0.63;;;17.30;99.90;;;;;;4897584;29;20763;-62
2021/05/25 10:07:44;;;;;;;4.05;0.85;;;17.30;99.90;;;;;;4891553;29;20412;-62
2021/05/25 10:10:12;;;;;;;2.30;1.00;;;17.40;99.90;;;;;;4901711;29;20107;-62
2021/05/25 10:12:42;;;;;;;5.85;1.02;;;17.30;99.90;;;;;;4895464;29;20044;-63
2021/05/25 10:15:11;;;;;;;1.67;0.90;;;17.30;99.90;;;;;;4918024;29;20051;-63
2021/05/25 10:20:08;;;;;;;1.90;0.70;;;17.30;99.90;;;;;;4898570;29;20412;-62
2021/05/25 10:22:36;;;;;;;2.95;1.17;;;17.20;99.90;;;;;;4898289;29;20044;-62
2021/05/25 10:25:06;;;;;;;3.22;0.65;;;17.20;99.90;;;;;;4901771;29;20055;-63
2021/05/25 10:27:33;;;;;;;1.88;0.60;;;17.20;99.90;;;;;;4892803;29;20147;-63
2021/05/25 10:30:26;;;;;;;2.97;0.73;;;17.20;99.90;;;;;;4892974;29;20051;-63
2021/05/25 10:33:06;;;;;;;2.10;0.90;;;17.10;99.90;;;;;;4890781;29;20056;-63
2021/05/25 10:35:53;;;;;;;2.65;1.00;;;17.10;99.90;;;;;;4897622;29;20441;-63
2021/05/25 10:38:53;;;;;;;4.45;0.70;;;17.10;99.90;;;;;;4905652;29;20065;-63
2021/05/25 10:41:35;;;;;;;3.33;0.50;;;17.10;99.40;;;;;;4855309;29;20056;-63
2021/05/25 10:44:03;;;;;;;2.17;0.60;;;17.00;99.40;;;;;;4852075;29;20522;-63
2021/05/25 10:46:31;;;;;;;1.45;0.60;;;17.00;99.10;;;;;;4859545;29;20048;-63
2021/05/25 10:49:25;;;;;;;1.48;0.40;;;16.90;99.70;;;;;;4853486;29;20073;-63
2021/05/25 10:51:52;;;;;;;0.68;0.30;;;16.90;99.00;;;;;;4843403;29;20089;-63
2021/05/25 10:54:23;;;;;;;1.38;0.40;;;16.90;98.70;;;;;;4846597;29;20092;-63
2021/05/25 10:56:51;;;;;;;0.52;0.30;;;16.90;98.70;;;;;;4859318;29;20425;-62
2021/05/25 10:59:19;;;;;;;1.27;0.30;;;16.90;99.40;;;;;;4856252;29;20570;-63
2021/05/25 11:01:57;;;;;;;1.15;0.20;;;17.00;98.50;;;;;;4843335;29;20456;-63
2021/05/25 11:04:44;;;;;;;1.00;0.20;;;17.00;97.30;;;;;;4837196;29;20049;-63
2021/05/25 11:07:49;;;;;;;1.48;0.30;;;17.10;97.50;;;;;;4853992;29;20477;-63
2021/05/25 11:10:28;;;;;;;1.92;0.30;;;17.10;97.50;;;;;;4799659;29;20051;-62
2021/05/25 11:13:14;;;;;;;0.98;0.30;;;17.00;98.80;;;;;;4812707;29;20054;-62
2021/05/25 11:24:45;;;;;;;0.95;0.30;;;16.90;98.10;;;;;;4835265;29;20058;-62
2021/05/25 11:27:14;;;;;;;2.67;0.25;;;16.90;98.40;;;;;;4839722;29;20042;-62
2021/05/25 11:29:42;;;;;;;2.78;0.43;;;16.90;97.90;;;;;;4833036;29;20053;-62
2021/05/25 11:32:14;;;;;;;1.95;0.10;;;16.90;96.80;;;;;;4832602;29;20073;-62
2021/05/25 11:34:42;;;;;;;2.90;0.45;;;16.90;96.40;;;;;;4836357;29;20418;-62
2021/05/25 11:37:14;;;;;;;1.02;0.10;;;16.90;95.70;;;;;;4831743;29;20142;-64
2021/05/25 11:39:40;;;;;;;1.63;0.40;;;16.80;96.70;;;;;;4809546;29;20050;-64
2021/05/25 11:42:09;;;;;;;2.33;0.20;;;16.90;96.10;;;;;;4833539;29;20560;-64
2021/05/25 11:44:44;;;;;;;0.50;0.30;;;16.90;96.60;;;;;;4873436;29;20048;-65
2021/05/25 11:47:12;;;;;;;0.30;0.10;;;16.90;95.90;;;;;;4900432;29;20044;-65
2021/05/25 11:49:41;;;;;;;0.57;0.20;;;17.00;96.80;;;;;;4895789;29;20044;-64
2021/05/25 11:52:29;;;;;;;1.30;0.20;;;17.00;96.10;;;;;;4897691;29;20062;-65
2021/05/25 11:55:02;;;;;;;0.95;0.10;;;17.00;97.00;;;;;;4892540;29;20096;-65
2021/05/25 11:57:40;;;;;;;1.13;0.10;;;17.10;97.20;;;;;;4895175;29;20040;-64
2021/05/25 12:00:07;;;;;;;1.48;0.20;;;17.10;95.80;;;;;;4893794;29;20044;-65
2021/05/25 12:02:43;;;;;;;0.95;0.17;;;17.20;94.90;;;;;;4889293;29;20037;-65
2021/05/25 12:05:15;;;;;;;1.00;0.20;;;17.20;95.60;;;;;;4903201;29;20044;-64
2021/05/25 12:07:49;;;;;;;0.40;0.10;;;17.20;94.70;;;;;;4891208;29;20425;-64
2021/05/25 12:10:19;;;;;;;1.83;0.30;;;17.30;94.60;;;;;;4893575;29;20048;-64
2021/05/25 12:12:47;;;;;;;0.80;0.40;;;17.60;95.60;;;;;;4895555;29;20048;-64
2021/05/25 12:15:32;;;;;;;3.03;0.20;;;18.00;95.30;;;;;;4896303;29;20044;-65
2021/05/25 12:18:00;;;;;;;0.40;0.20;;;19.00;94.20;;;;;;4894312;29;20504;-63
2021/05/25 12:21:01;;;;;;;0.30;0.13;;;20.10;91.80;;;;;;4893135;29;20484;-64
2021/05/25 12:23:29;;;;;;;0.98;0.10;;;20.70;82.40;;;;;;4861827;29;20124;-64
2021/05/25 12:26:18;;;;;;;0.77;0.10;;;20.50;81.90;;;;;;4894413;29;20143;-63
2021/05/25 12:28:49;;;;;;;10.27;0.70;;;20.20;82.60;;;;;;4895762;29;20048;-63
2021/05/25 12:31:17;;;;;;;2.20;0.20;;;20.20;85.40;;;;;;4890387;29;20164;-63
2021/05/25 12:33:49;;;;;;;1.35;0.20;;;20.00;86.40;;;;;;4889348;29;20059;-62
2021/05/25 12:36:24;;;;;;;2.42;0.20;;;19.80;84.90;;;;;;4890499;29;20500;-63
2021/05/25 12:39:04;;;;;;;0.60;0.20;;;19.90;84.80;;;;;;4892866;29;20056;-62
2021/05/25 12:41:39;;;;;;;1.67;0.52;;;20.10;83.60;;;;;;4886689;29;20047;-63
2021/05/25 12:44:19;;;;;;;0.85;0.10;;;20.20;83.10;;;;;;4892168;29;20542;-63
2021/05/25 12:46:53;;;;;;;0.38;0.10;;;20.30;82.10;;;;;;4887545;29;20207;-65
2021/05/25 12:49:36;;;;;;;0.90;0.10;;;20.60;79.50;;;;;;4890574;29;20060;-66
2021/05/25 12:52:25;;;;;;;1.95;0.10;;;20.60;79.50;;;;;;4875275;29;20062;-65
2021/05/25 12:54:57;;;;;;;0.82;0.10;;;20.80;75.00;;;;;;4895753;29;20131;-65
2021/05/25 12:57:51;;;;;;;0.10;0.05;;;21.20;77.20;;;;;;4897725;29;20412;-65
2021/05/25 13:00:40;;;;;;;0.20;0.10;;;21.60;75.10;;;;;;4887126;29;20132;-65
2021/05/25 13:03:24;;;;;;;10.90;0.30;;;21.90;72.00;;;;;;4889908;29;20473;-66
2021/05/25 13:05:52;;;;;;;1.90;0.22;;;22.10;71.50;;;;;;4882515;29;20581;-65
2021/05/25 13:08:32;;;;;;;0.20;0.00;;;22.20;71.50;;;;;;4895114;29;20049;-65
2021/05/25 13:11:10;;;;;;;0.50;0.00;;;22.10;67.80;;;;;;4897796;29;20104;-65
2021/05/25 13:13:40;;;;;;;1.05;0.10;;;21.90;70.50;;;;;;4890929;29;20543;-65
2021/05/25 13:16:22;;;;;;;1.30;0.00;;;21.50;69.80;;;;;;4896840;29;20045;-65
2021/05/25 13:18:51;;;;;;;0.20;0.00;;;21.10;70.70;;;;;;4895702;29;20044;-65
2021/05/25 13:21:23;;;;;;;0.43;0.20;;;21.10;71.90;;;;;;4893753;29;20069;-65
2021/05/25 13:23:58;;;;;;;1.60;0.00;;;21.20;72.90;;;;;;4897044;29;20056;-65